createdAt,value
2023-05-05T00:00:25.135Z,15.3317
2023-05-05T00:01:33.511Z,15.4456
2023-05-05T00:02:41.534Z,15.4637
2023-05-05T00:03:49.629Z,15.4774
2023-05-05T00:04:57.613Z,15.3859
2023-05-05T00:06:05.649Z,15.3187
2023-05-05T00:07:13.661Z,15.2779
2023-05-05T00:08:21.754Z,15.2278
2023-05-05T00:09:29.757Z,15.2371
2023-05-05T00:10:37.860Z,15.0778
2023-05-05T00:11:45.892Z,14.9445
2023-05-05T00:12:53.851Z,14.8831
2023-05-05T00:14:01.885Z,14.9085
2023-05-05T00:15:09.916Z,14.9186
2023-05-05T00:16:18.103Z,14.8722
2023-05-05T00:17:26.299Z,14.9266
2023-05-05T00:18:34.252Z,14.8795
2023-05-05T00:19:42.343Z,14.8310
2023-05-05T00:20:50.368Z,14.8713
2023-05-05T00:21:58.400Z,14.9386
2023-05-05T00:23:06.472Z,15.0962
2023-05-05T00:24:14.711Z,15.1473
2023-05-05T00:25:22.644Z,15.2787
2023-05-05T00:26:30.606Z,15.4215
2023-05-05T00:27:40.236Z,15.4917
2023-05-05T00:28:51.488Z,15.5064
2023-05-05T00:29:59.832Z,15.3943
2023-05-05T00:31:07.865Z,15.2527
2023-05-05T00:32:15.824Z,15.1990
2023-05-05T00:33:23.919Z,15.0529
2023-05-05T00:34:31.955Z,14.9848
2023-05-05T00:35:39.976Z,14.8322
2023-05-05T00:36:48.061Z,14.8089
2023-05-05T00:37:56.157Z,14.7547
2023-05-05T00:39:04.234Z,14.7305
2023-05-05T00:40:12.246Z,14.7891
2023-05-05T00:41:20.171Z,14.9039
2023-05-05T00:42:28.217Z,14.8970
2023-05-05T00:43:36.273Z,14.8911
2023-05-05T00:44:44.715Z,14.8814
2023-05-05T00:45:52.520Z,14.8520
2023-05-05T00:47:00.770Z,14.7467
2023-05-05T00:48:08.796Z,14.6491
2023-05-05T00:49:16.851Z,14.6653
2023-05-05T00:50:24.773Z,14.7339
2023-05-05T00:51:32.852Z,14.7982
2023-05-05T00:52:40.996Z,14.8381
2023-05-05T00:53:48.990Z,14.7921
2023-05-05T00:54:57.053Z,14.8566
2023-05-05T00:56:04.960Z,14.8692
2023-05-05T00:57:13.029Z,14.7431
2023-05-05T00:58:21.100Z,14.5831
2023-05-05T00:59:29.305Z,14.3164
2023-05-05T01:00:37.334Z,14.3948
2023-05-05T01:01:45.399Z,14.4240
2023-05-05T01:02:53.588Z,14.5461
2023-05-05T01:04:01.742Z,14.6081
2023-05-05T01:05:09.585Z,14.5440
2023-05-05T01:06:17.677Z,14.4284
2023-05-05T01:07:25.695Z,14.4192
2023-05-05T01:08:33.779Z,14.4324
2023-05-05T01:09:41.869Z,14.3361
2023-05-05T01:10:49.756Z,14.1896
2023-05-05T01:11:57.813Z,14.1674
2023-05-05T01:13:05.961Z,14.2802
2023-05-05T01:14:14.087Z,14.2289
2023-05-05T01:15:22.139Z,14.2214
2023-05-05T01:16:30.199Z,14.2701
2023-05-05T01:17:38.309Z,14.2672
2023-05-05T01:18:46.319Z,14.3015
2023-05-05T01:19:54.611Z,14.3475
2023-05-05T01:21:02.508Z,14.3445
2023-05-05T01:22:10.631Z,14.3559
2023-05-05T01:23:18.628Z,14.3454
2023-05-05T01:24:26.771Z,14.3836
2023-05-05T01:25:34.618Z,14.2962
2023-05-05T01:26:42.680Z,14.3469
2023-05-05T01:27:50.721Z,14.3153
2023-05-05T01:28:58.945Z,14.1366
2023-05-05T01:30:07.304Z,14.0864
2023-05-05T01:31:15.080Z,14.0236
2023-05-05T01:32:23.114Z,14.0681
2023-05-05T01:33:31.151Z,14.0873
2023-05-05T01:34:39.207Z,13.9939
2023-05-05T01:35:47.474Z,14.1024
2023-05-05T01:36:55.337Z,14.0702
2023-05-05T01:38:03.402Z,13.9151
2023-05-05T01:39:11.466Z,13.8754
2023-05-05T01:40:19.447Z,13.8823
2023-05-05T01:41:27.416Z,13.8638
2023-05-05T01:42:35.538Z,13.8264
2023-05-05T01:43:43.754Z,13.7473
2023-05-05T01:44:51.792Z,13.7093
2023-05-05T01:45:59.873Z,13.7536
2023-05-05T01:47:07.923Z,13.9096
2023-05-05T01:48:15.939Z,13.9319
2023-05-05T01:49:23.990Z,13.9134
2023-05-05T01:50:32.086Z,13.8724
2023-05-05T01:51:40.117Z,13.7989
2023-05-05T01:52:48.290Z,13.7717
2023-05-05T01:53:56.323Z,13.7396
2023-05-05T01:55:04.168Z,13.6813
2023-05-05T01:56:12.206Z,13.6979
2023-05-05T01:57:20.276Z,13.7455
2023-05-05T01:58:28.472Z,13.8234
2023-05-05T01:59:36.504Z,13.7860
2023-05-05T02:00:44.794Z,13.6868
2023-05-05T02:01:52.644Z,13.7194
2023-05-05T02:03:00.725Z,13.6589
2023-05-05T02:04:08.737Z,13.6227
2023-05-05T02:05:16.948Z,13.7186
2023-05-05T02:06:24.887Z,13.7007
2023-05-05T02:07:32.928Z,13.6694
2023-05-05T02:08:41.232Z,13.7236
2023-05-05T02:09:48.970Z,13.7579
2023-05-05T02:10:57.018Z,13.7665
2023-05-05T02:12:05.103Z,13.8331
2023-05-05T02:13:13.384Z,13.8655
2023-05-05T02:14:21.304Z,13.9403
2023-05-05T02:15:29.426Z,13.9830
2023-05-05T02:16:37.637Z,13.9700
2023-05-05T02:17:45.551Z,13.9185
2023-05-05T02:18:53.562Z,13.9346
2023-05-05T02:20:01.714Z,13.9357
2023-05-05T02:21:09.695Z,13.9689
2023-05-05T02:22:17.720Z,13.9895
2023-05-05T02:23:25.892Z,14.0271
2023-05-05T02:24:33.728Z,14.0793
2023-05-05T02:25:41.806Z,13.9948
2023-05-05T02:26:49.846Z,13.8754
2023-05-05T02:27:58.055Z,13.9567
2023-05-05T02:29:06.070Z,14.0631
2023-05-05T02:30:14.207Z,14.0826
2023-05-05T02:31:22.209Z,14.0563
2023-05-05T02:32:30.464Z,13.9153
2023-05-05T02:33:38.320Z,13.9555
2023-05-05T02:34:46.374Z,13.8892
2023-05-05T02:35:54.480Z,13.8583
2023-05-05T02:37:02.484Z,13.8594
2023-05-05T02:38:10.639Z,13.8724
2023-05-05T02:39:18.484Z,13.8737
2023-05-05T02:40:26.563Z,13.6980
2023-05-05T02:41:34.642Z,13.4722
2023-05-05T02:42:42.709Z,13.2641
2023-05-05T02:43:50.752Z,13.2698
2023-05-05T02:44:58.958Z,13.2288
2023-05-05T02:46:07.058Z,13.2660
2023-05-05T02:47:15.040Z,13.1548
2023-05-05T02:48:23.138Z,13.2727
2023-05-05T02:49:31.294Z,13.4140
2023-05-05T02:50:39.299Z,13.3854
2023-05-05T02:51:47.315Z,13.2105
2023-05-05T02:52:55.364Z,13.2258
2023-05-05T02:54:03.366Z,13.2302
2023-05-05T02:55:11.594Z,13.2557
2023-05-05T02:56:19.452Z,13.1382
2023-05-05T02:57:27.444Z,13.1377
2023-05-05T02:58:35.547Z,13.2248
2023-05-05T02:59:43.756Z,13.2695
2023-05-05T03:00:51.827Z,13.3385
2023-05-05T03:01:59.909Z,13.4659
2023-05-05T03:03:07.918Z,13.5813
2023-05-05T03:04:15.950Z,13.5573
2023-05-05T03:05:23.995Z,13.4068
2023-05-05T03:06:32.121Z,13.3417
2023-05-05T03:07:40.148Z,13.3110
2023-05-05T03:08:48.188Z,13.2069
2023-05-05T03:09:56.272Z,13.2027
2023-05-05T03:11:04.258Z,13.0835
2023-05-05T03:12:12.261Z,12.9845
2023-05-05T03:13:20.356Z,13.1409
2023-05-05T03:14:29.583Z,13.1638
2023-05-05T03:15:41.510Z,13.1781
2023-05-05T03:16:49.560Z,13.2098
2023-05-05T03:17:57.670Z,13.2559
2023-05-05T03:19:05.662Z,13.2740
2023-05-05T03:20:13.703Z,13.2559
2023-05-05T03:21:21.921Z,13.3452
2023-05-05T03:22:29.848Z,13.4634
2023-05-05T03:23:37.843Z,13.5765
2023-05-05T03:24:45.776Z,13.6885
2023-05-05T03:25:53.873Z,13.5342
2023-05-05T03:27:01.964Z,13.4859
2023-05-05T03:28:10.112Z,13.5630
2023-05-05T03:29:18.198Z,13.5889
2023-05-05T03:30:26.285Z,13.6389
2023-05-05T03:31:34.362Z,13.7516
2023-05-05T03:32:42.358Z,13.8533
2023-05-05T03:33:50.438Z,13.8192
2023-05-05T03:34:58.636Z,13.8091
2023-05-05T03:36:06.544Z,13.8875
2023-05-05T03:37:14.800Z,13.9710
2023-05-05T03:38:22.627Z,14.0166
2023-05-05T03:39:30.576Z,13.9536
2023-05-05T03:40:44.127Z,13.9384
2023-05-05T03:41:51.764Z,13.9793
2023-05-05T03:42:59.793Z,13.9407
2023-05-05T03:44:07.855Z,13.9365
2023-05-05T03:45:16.049Z,13.9628
2023-05-05T03:46:23.969Z,13.9964
2023-05-05T03:47:32.005Z,14.0196
2023-05-05T03:48:40.042Z,14.0271
2023-05-05T03:49:48.126Z,14.0837
2023-05-05T03:50:56.154Z,14.1644
2023-05-05T03:52:04.248Z,14.2287
2023-05-05T03:53:12.165Z,14.2167
2023-05-05T03:54:20.206Z,14.2441
2023-05-05T03:55:28.270Z,14.2773
2023-05-05T03:56:36.513Z,14.2752
2023-05-05T03:57:44.526Z,14.2966
2023-05-05T03:58:52.579Z,14.2766
2023-05-05T04:00:00.648Z,14.2624
2023-05-05T04:01:08.697Z,14.1966
2023-05-05T04:02:18.630Z,14.1747
2023-05-05T04:03:29.707Z,14.1107
2023-05-05T04:04:37.697Z,14.0061
2023-05-05T04:05:45.761Z,13.9065
2023-05-05T04:06:53.788Z,13.8211
2023-05-05T04:08:01.794Z,13.7476
2023-05-05T04:09:09.818Z,13.6963
2023-05-05T04:10:18.040Z,13.5821
2023-05-05T04:11:26.141Z,13.4730
2023-05-05T04:12:34.225Z,13.3213
2023-05-05T04:13:42.452Z,13.2868
2023-05-05T04:14:50.314Z,13.3217
2023-05-05T04:15:58.467Z,13.3131
2023-05-05T04:17:06.374Z,13.3623
2023-05-05T04:18:14.465Z,13.3608
2023-05-05T04:19:22.539Z,13.3959
2023-05-05T04:20:30.528Z,13.4383
2023-05-05T04:21:38.564Z,13.4138
2023-05-05T04:22:46.602Z,13.3576
2023-05-05T04:23:54.620Z,13.3927
2023-05-05T04:25:02.768Z,13.3250
2023-05-05T04:26:10.856Z,13.2387
2023-05-05T04:27:18.931Z,13.2332
2023-05-05T04:28:27.064Z,13.2281
2023-05-05T04:29:35.104Z,13.2069
2023-05-05T04:30:43.131Z,13.2040
2023-05-05T04:31:51.249Z,13.0570
2023-05-05T04:32:59.321Z,13.0120
2023-05-05T04:34:07.385Z,12.8420
2023-05-05T04:35:15.341Z,12.9311
2023-05-05T04:36:23.288Z,13.0381
2023-05-05T04:37:31.386Z,12.9780
2023-05-05T04:38:39.407Z,12.9225
2023-05-05T04:39:47.528Z,13.0028
2023-05-05T04:40:55.621Z,13.0680
2023-05-05T04:42:03.683Z,13.0661
2023-05-05T04:43:11.811Z,13.0711
2023-05-05T04:44:19.794Z,13.0417
2023-05-05T04:45:27.825Z,13.0551
2023-05-05T04:46:35.918Z,13.1111
2023-05-05T04:47:44.131Z,13.1241
2023-05-05T04:48:52.123Z,13.1718
2023-05-05T04:50:00.125Z,13.2178
2023-05-05T04:51:08.077Z,13.2601
2023-05-05T04:52:16.140Z,13.2891
2023-05-05T04:53:24.212Z,13.2557
2023-05-05T04:54:32.337Z,13.3211
2023-05-05T04:55:40.357Z,13.3343
2023-05-05T04:56:48.403Z,13.3332
2023-05-05T04:57:56.558Z,13.3585
2023-05-05T04:59:04.548Z,13.4518
2023-05-05T05:00:12.576Z,13.4816
2023-05-05T05:01:20.664Z,13.3887
2023-05-05T05:02:28.774Z,13.2529
2023-05-05T05:03:36.864Z,13.1144
2023-05-05T05:04:44.865Z,13.0740
2023-05-05T05:05:52.967Z,12.9071
2023-05-05T05:07:00.855Z,12.6807
2023-05-05T05:08:08.974Z,12.6658
2023-05-05T05:09:17.157Z,12.9231
2023-05-05T05:10:25.186Z,13.0993
2023-05-05T05:11:33.237Z,13.1453
2023-05-05T05:12:41.288Z,13.1661
2023-05-05T05:13:49.386Z,13.1979
2023-05-05T05:14:57.512Z,13.2559
2023-05-05T05:16:05.582Z,13.2828
2023-05-05T05:17:13.456Z,13.4226
2023-05-05T05:18:21.596Z,13.4497
2023-05-05T05:19:29.693Z,13.2048
2023-05-05T05:20:37.546Z,13.1356
2023-05-05T05:21:45.628Z,13.0041
2023-05-05T05:22:53.711Z,12.9130
2023-05-05T05:24:01.789Z,13.0049
2023-05-05T05:25:09.913Z,13.1281
2023-05-05T05:26:17.974Z,13.3335
2023-05-05T05:27:26.010Z,13.4886
2023-05-05T05:28:34.209Z,13.4838
2023-05-05T05:29:42.187Z,13.6820
2023-05-05T05:30:50.249Z,13.7642
2023-05-05T05:31:58.392Z,13.7734
2023-05-05T05:33:06.437Z,13.8476
2023-05-05T05:34:14.463Z,13.6631
2023-05-05T05:35:22.405Z,13.4653
2023-05-05T05:36:30.472Z,13.3917
2023-05-05T05:37:38.573Z,13.3162
2023-05-05T05:38:46.605Z,13.3072
2023-05-05T05:39:54.710Z,13.4129
2023-05-05T05:41:02.854Z,13.3383
2023-05-05T05:42:10.841Z,13.4144
2023-05-05T05:43:18.983Z,13.6513
2023-05-05T05:44:27.001Z,13.7419
2023-05-05T05:45:35.228Z,13.8077
2023-05-05T05:46:43.151Z,13.8180
2023-05-05T05:47:51.363Z,13.9134
2023-05-05T05:48:59.327Z,13.8548
2023-05-05T05:50:07.438Z,13.8340
2023-05-05T05:51:15.222Z,13.9174
2023-05-05T05:52:23.265Z,13.9403
2023-05-05T05:53:31.517Z,13.9729
2023-05-05T05:54:39.380Z,13.9397
2023-05-05T05:55:47.719Z,13.9313
2023-05-05T05:56:55.580Z,13.8352
2023-05-05T05:58:03.720Z,13.8073
2023-05-05T05:59:11.786Z,13.8363
2023-05-05T06:00:19.763Z,13.9285
2023-05-05T06:01:27.840Z,13.8737
2023-05-05T06:02:35.934Z,13.7785
2023-05-05T06:03:44.046Z,13.9386
2023-05-05T06:04:51.927Z,14.0158
2023-05-05T06:05:59.976Z,14.1549
2023-05-05T06:07:08.006Z,14.2851
2023-05-05T06:08:16.171Z,14.3094
2023-05-05T06:09:24.330Z,14.3328
2023-05-05T06:10:32.524Z,14.4312
2023-05-05T06:11:45.258Z,14.4315
2023-05-05T06:12:53.652Z,14.5501
2023-05-05T06:14:01.414Z,14.5491
2023-05-05T06:15:09.397Z,14.5865
2023-05-05T06:16:17.538Z,14.5499
2023-05-05T06:17:25.497Z,14.6670
2023-05-05T06:18:33.547Z,14.8381
2023-05-05T06:19:41.535Z,15.0639
2023-05-05T06:20:49.609Z,15.1696
2023-05-05T06:21:57.908Z,15.1965
2023-05-05T06:23:05.872Z,15.3350
2023-05-05T06:24:13.912Z,15.3096
2023-05-05T06:25:21.981Z,15.1547
2023-05-05T06:26:30.003Z,15.2379
2023-05-05T06:27:38.022Z,15.3569
2023-05-05T06:28:46.112Z,15.4664
2023-05-05T06:29:54.250Z,15.5640
2023-05-05T06:31:02.303Z,15.5837
2023-05-05T06:32:10.286Z,15.4986
2023-05-05T06:33:18.244Z,15.4456
2023-05-05T06:34:26.295Z,15.3237
2023-05-05T06:35:34.388Z,15.1946
2023-05-05T06:36:42.466Z,15.2718
2023-05-05T06:37:50.607Z,15.4292
2023-05-05T06:38:58.618Z,15.5575
2023-05-05T06:40:06.861Z,15.6707
2023-05-05T06:41:14.826Z,15.4637
2023-05-05T06:42:22.827Z,15.4698
2023-05-05T06:43:30.938Z,15.4322
2023-05-05T06:44:38.906Z,15.4484
2023-05-05T06:45:47.212Z,15.4824
2023-05-05T06:46:55.088Z,15.2939
2023-05-05T06:48:03.059Z,15.4261
2023-05-05T06:49:11.050Z,15.3828
2023-05-05T06:50:19.103Z,15.3411
2023-05-05T06:51:27.364Z,15.3910
2023-05-05T06:52:35.412Z,15.5827
2023-05-05T06:53:43.405Z,15.7750
2023-05-05T06:54:51.507Z,15.9913
2023-05-05T06:55:59.518Z,16.0798
2023-05-05T06:57:07.565Z,16.0880
2023-05-05T06:58:15.614Z,16.2026
2023-05-05T06:59:23.681Z,16.3915
2023-05-05T07:00:31.736Z,16.4733
2023-05-05T07:01:39.880Z,16.5448
2023-05-05T07:02:47.771Z,16.7754
2023-05-05T07:03:55.877Z,16.9776
2023-05-05T07:05:03.896Z,16.9394
2023-05-05T07:06:12.009Z,16.8858
2023-05-05T07:07:20.147Z,16.7914
2023-05-05T07:08:28.190Z,16.7558
2023-05-05T07:09:36.304Z,16.9120
2023-05-05T07:10:44.296Z,16.8477
2023-05-05T07:11:52.397Z,16.9290
2023-05-05T07:13:00.444Z,16.9812
2023-05-05T07:14:08.438Z,16.8506
2023-05-05T07:15:27.614Z,16.9200
2023-05-05T07:16:29.372Z,16.8898
2023-05-05T07:17:37.383Z,16.6999
2023-05-05T07:18:45.432Z,16.5122
2023-05-05T07:19:53.753Z,16.5814
2023-05-05T07:21:01.630Z,16.7115
2023-05-05T07:22:09.637Z,16.6781
2023-05-05T07:23:17.849Z,16.8849
2023-05-05T07:24:25.803Z,16.9160
2023-05-05T07:25:33.948Z,16.8220
2023-05-05T07:26:42.004Z,16.7489
2023-05-05T07:27:50.063Z,16.9503
2023-05-05T07:28:58.082Z,17.0356
2023-05-05T07:30:10.057Z,16.9591
2023-05-05T07:31:18.927Z,16.8348
2023-05-05T07:32:27.096Z,16.8326
2023-05-05T07:33:35.074Z,16.5490
2023-05-05T07:34:43.271Z,16.6354
2023-05-05T07:35:51.399Z,16.4885
2023-05-05T07:36:59.410Z,16.5597
2023-05-05T07:38:08.719Z,16.6362
2023-05-05T07:39:20.332Z,16.7027
2023-05-05T07:40:28.371Z,16.8120
2023-05-05T07:41:36.462Z,16.9866
2023-05-05T07:42:44.626Z,17.0857
2023-05-05T07:43:52.677Z,17.0209
2023-05-05T07:45:00.470Z,16.8822
2023-05-05T07:46:08.548Z,16.8778
2023-05-05T07:47:16.629Z,16.8858
2023-05-05T07:48:24.769Z,16.9774
2023-05-05T07:49:32.874Z,17.0550
2023-05-05T07:50:40.905Z,17.0300
2023-05-05T07:51:49.127Z,16.8792
2023-05-05T07:53:06.250Z,16.5973
2023-05-05T07:54:09.916Z,16.5792
2023-05-05T07:55:18.018Z,16.7857
2023-05-05T07:56:26.068Z,16.7451
2023-05-05T07:57:34.239Z,16.5608
2023-05-05T07:58:42.035Z,16.5540
2023-05-05T07:59:50.067Z,16.6833
2023-05-05T08:00:58.141Z,16.8538
2023-05-05T08:02:06.345Z,16.8879
2023-05-05T08:03:14.441Z,16.9991
2023-05-05T08:04:22.428Z,17.1550
2023-05-05T08:05:30.502Z,17.2021
2023-05-05T08:06:38.506Z,17.1460
2023-05-05T08:07:46.800Z,17.3268
2023-05-05T08:08:54.665Z,17.5107
2023-05-05T08:10:02.718Z,17.4764
2023-05-05T08:11:10.834Z,17.3148
2023-05-05T08:12:18.868Z,17.1861
2023-05-05T08:13:26.809Z,17.2994
2023-05-05T08:14:34.840Z,17.6244
2023-05-05T08:15:42.910Z,18.0076
2023-05-05T08:16:51.064Z,18.3126
2023-05-05T08:17:59.190Z,18.4701
2023-05-05T08:19:17.670Z,18.6925
2023-05-05T08:20:20.182Z,19.0560
2023-05-05T08:21:28.164Z,19.5945
2023-05-05T08:22:36.282Z,20.1103
2023-05-05T08:23:44.300Z,20.5780
2023-05-05T08:24:52.634Z,20.8320
2023-05-05T08:26:00.285Z,20.8339
2023-05-05T08:27:08.339Z,20.9875
2023-05-05T08:28:16.440Z,21.0033
2023-05-05T08:29:24.641Z,21.2785
2023-05-05T08:30:32.927Z,21.6089
2023-05-05T08:31:40.751Z,21.6247
2023-05-05T08:32:48.910Z,21.4508
2023-05-05T08:33:56.958Z,21.0411
2023-05-05T08:35:04.927Z,20.7426
2023-05-05T08:36:12.932Z,20.6514
2023-05-05T08:37:21.071Z,20.6396
2023-05-05T08:38:29.066Z,20.5562
2023-05-05T08:39:37.168Z,20.2421
2023-05-05T08:40:45.049Z,19.8327
2023-05-05T08:41:53.152Z,19.7698
2023-05-05T08:43:01.203Z,19.9775
2023-05-05T08:44:09.479Z,20.1240
2023-05-05T08:45:17.543Z,19.8856
2023-05-05T08:46:25.482Z,19.8110
2023-05-05T08:47:33.555Z,20.0389
2023-05-05T08:48:41.741Z,20.2119
2023-05-05T08:49:49.715Z,20.1885
2023-05-05T08:50:59.542Z,20.2857
2023-05-05T08:52:10.647Z,20.0474
2023-05-05T08:53:18.668Z,20.3123
2023-05-05T08:54:26.637Z,20.3010
2023-05-05T08:55:34.690Z,20.1795
2023-05-05T08:56:42.751Z,19.9060
2023-05-05T08:57:51.110Z,19.7599
2023-05-05T08:58:58.965Z,20.1814
2023-05-05T09:00:07.008Z,20.3906
2023-05-05T09:01:15.159Z,20.5736
2023-05-05T09:02:23.209Z,20.6596
2023-05-05T09:03:31.190Z,20.7504
2023-05-05T09:04:39.282Z,20.7502
2023-05-05T09:05:47.277Z,20.7918
2023-05-05T09:06:55.308Z,20.7679
2023-05-05T09:08:03.584Z,20.7485
2023-05-05T09:09:11.406Z,20.8953
2023-05-05T09:10:19.452Z,20.9201
2023-05-05T09:11:27.531Z,20.6657
2023-05-05T09:12:35.664Z,20.6007
2023-05-05T09:13:43.892Z,20.3359
2023-05-05T09:14:51.770Z,20.3533
2023-05-05T09:15:59.894Z,19.9800
2023-05-05T09:17:07.981Z,20.1637
2023-05-05T09:18:15.956Z,20.3886
2023-05-05T09:19:23.974Z,20.4973
2023-05-05T09:20:32.234Z,20.5059
2023-05-05T09:21:40.117Z,20.4093
2023-05-05T09:22:48.174Z,20.1732
2023-05-05T09:23:58.535Z,20.0157
2023-05-05T09:25:09.251Z,20.2537
2023-05-05T09:26:17.214Z,20.3701
2023-05-05T09:27:25.264Z,20.3365
2023-05-05T09:28:33.264Z,20.5745
2023-05-05T09:29:41.493Z,20.8095
2023-05-05T09:30:49.493Z,20.6253
2023-05-05T09:31:57.533Z,20.6220
2023-05-05T09:33:05.667Z,20.8650
2023-05-05T09:34:13.630Z,20.8807
2023-05-05T09:35:21.727Z,21.0500
2023-05-05T09:36:29.700Z,21.2041
2023-05-05T09:37:37.736Z,21.1979
2023-05-05T09:38:45.819Z,21.2618
2023-05-05T09:39:53.929Z,20.9816
2023-05-05T09:41:02.136Z,21.0474
2023-05-05T09:42:10.095Z,21.2301
2023-05-05T09:43:18.163Z,21.3621
2023-05-05T09:44:26.358Z,21.5118
2023-05-05T09:45:34.286Z,21.5736
2023-05-05T09:46:42.515Z,21.7071
2023-05-05T09:47:50.652Z,21.4441
2023-05-05T09:48:58.503Z,21.3602
2023-05-05T09:50:06.696Z,21.4754
2023-05-05T09:51:14.449Z,21.4693
2023-05-05T09:52:22.546Z,21.5656
2023-05-05T09:53:30.556Z,21.8660
2023-05-05T09:54:38.790Z,21.5601
2023-05-05T09:55:46.832Z,21.3039
2023-05-05T09:56:54.827Z,21.7460
2023-05-05T09:58:02.985Z,22.0049
2023-05-05T09:59:11.098Z,22.1258
2023-05-05T10:00:18.923Z,22.2921
2023-05-05T10:01:27.162Z,22.3341
2023-05-05T10:02:35.146Z,22.9584
2023-05-05T10:03:43.265Z,23.5861
2023-05-05T10:04:51.259Z,24.0738
2023-05-05T10:05:59.208Z,24.6084
2023-05-05T10:07:07.263Z,24.8888
2023-05-05T10:08:15.342Z,24.4837
2023-05-05T10:09:23.503Z,25.1303
2023-05-05T10:10:31.610Z,25.4715
2023-05-05T10:11:39.552Z,25.8341
2023-05-05T10:12:47.782Z,26.1370
2023-05-05T10:13:55.773Z,26.4819
2023-05-05T10:15:03.809Z,26.3882
2023-05-05T10:16:12.022Z,26.6980
2023-05-05T10:17:19.888Z,27.1294
2023-05-05T10:18:27.967Z,27.1706
2023-05-05T10:19:36.006Z,27.1477
2023-05-05T10:20:44.024Z,27.3610
2023-05-05T10:21:52.080Z,27.6278
2023-05-05T10:23:00.148Z,27.6107
2023-05-05T10:24:08.245Z,27.9681
2023-05-05T10:25:16.308Z,28.3896
2023-05-05T10:26:24.466Z,28.6252
2023-05-05T10:27:32.524Z,28.6404
2023-05-05T10:28:40.540Z,27.5454
2023-05-05T10:29:48.633Z,27.2503
2023-05-05T10:30:56.704Z,26.8376
2023-05-05T10:32:21.456Z,26.5347
2023-05-05T10:33:30.213Z,26.2995
2023-05-05T10:34:30.491Z,26.1293
2023-05-05T10:35:38.660Z,26.2089
2023-05-05T10:36:46.787Z,26.0693
2023-05-05T10:37:54.826Z,26.1425
2023-05-05T10:39:02.826Z,26.3178
2023-05-05T10:40:11.241Z,26.5234
2023-05-05T10:41:18.979Z,26.0046
2023-05-05T10:42:27.082Z,26.0264
2023-05-05T10:43:35.116Z,25.7458
2023-05-05T10:44:43.116Z,26.1919
2023-05-05T10:45:51.243Z,26.5820
2023-05-05T10:46:59.172Z,27.0733
2023-05-05T10:48:07.247Z,27.7014
2023-05-05T10:49:15.277Z,28.3173
2023-05-05T10:50:23.390Z,28.5256
2023-05-05T10:51:40.094Z,28.3036
2023-05-05T10:52:44.517Z,28.4967
2023-05-05T10:53:52.522Z,28.9990
2023-05-05T10:55:00.509Z,29.5156
2023-05-05T10:56:08.722Z,29.7276
2023-05-05T10:57:16.735Z,29.7822
2023-05-05T10:58:24.723Z,29.7229
2023-05-05T10:59:32.845Z,29.9060
2023-05-05T11:00:40.814Z,30.2230
2023-05-05T11:01:48.838Z,30.5030
2023-05-05T11:02:56.999Z,29.7862
2023-05-05T11:04:05.105Z,29.7154
2023-05-05T11:05:13.102Z,29.4164
2023-05-05T11:06:21.119Z,29.2336
2023-05-05T11:07:29.309Z,29.4228
2023-05-05T11:08:37.557Z,29.1854
2023-05-05T11:09:45.440Z,28.8403
2023-05-05T11:10:53.494Z,28.9458
2023-05-05T11:12:01.596Z,28.5470
2023-05-05T11:13:09.590Z,28.4352
2023-05-05T11:14:17.640Z,28.0459
2023-05-05T11:15:25.633Z,27.3224
2023-05-05T11:16:33.726Z,27.1819
2023-05-05T11:17:41.832Z,27.2021
2023-05-05T11:18:49.968Z,26.6968
2023-05-05T11:19:57.984Z,26.7422
2023-05-05T11:21:06.003Z,26.9572
2023-05-05T11:22:14.106Z,27.1691
2023-05-05T11:23:22.216Z,27.1077
2023-05-05T11:24:30.274Z,27.0787
2023-05-05T11:25:38.404Z,27.2872
2023-05-05T11:26:46.361Z,27.0720
2023-05-05T11:27:54.444Z,26.8149
2023-05-05T11:29:02.501Z,26.6438
2023-05-05T11:30:10.705Z,26.9080
2023-05-05T11:31:18.605Z,26.4929
2023-05-05T11:32:26.633Z,26.0172
2023-05-05T11:33:34.785Z,25.3929
2023-05-05T11:34:42.772Z,25.2157
2023-05-05T11:35:50.847Z,25.5713
2023-05-05T11:36:58.948Z,25.1829
2023-05-05T11:38:07.036Z,25.0126
2023-05-05T11:39:15.049Z,25.2766
2023-05-05T11:40:23.129Z,25.4565
2023-05-05T11:41:31.230Z,25.6321
2023-05-05T11:42:39.290Z,25.9121
2023-05-05T11:43:47.274Z,26.0992
2023-05-05T11:44:55.301Z,26.3308
2023-05-05T11:46:03.396Z,26.2640
2023-05-05T11:47:11.408Z,26.5763
2023-05-05T11:48:19.770Z,26.9827
2023-05-05T11:49:27.691Z,27.2463
2023-05-05T11:50:35.855Z,27.1687
2023-05-05T11:51:43.787Z,27.5717
2023-05-05T11:52:51.848Z,27.6662
2023-05-05T11:53:59.904Z,28.1132
2023-05-05T11:55:07.972Z,28.3486
2023-05-05T11:56:16.102Z,28.3745
2023-05-05T11:57:24.245Z,28.2130
2023-05-05T11:58:32.205Z,28.2090
2023-05-05T11:59:40.086Z,28.2641
2023-05-05T12:00:48.147Z,27.8853
2023-05-05T12:01:56.213Z,27.0648
2023-05-05T12:03:04.522Z,27.0444
2023-05-05T12:04:12.861Z,27.1533
2023-05-05T12:05:20.546Z,27.0978
2023-05-05T12:06:28.610Z,27.2191
2023-05-05T12:07:36.631Z,27.3865
2023-05-05T12:08:44.777Z,27.5731
2023-05-05T12:09:52.791Z,27.7177
2023-05-05T12:11:01.009Z,28.0637
2023-05-05T12:12:08.974Z,28.6959
2023-05-05T12:13:17.131Z,29.2672
2023-05-05T12:14:24.980Z,29.2718
2023-05-05T12:15:32.996Z,29.3797
2023-05-05T12:16:41.271Z,29.4181
2023-05-05T12:17:49.280Z,29.6834
2023-05-05T12:18:57.408Z,29.6054
2023-05-05T12:20:05.592Z,29.8533
2023-05-05T12:21:13.482Z,29.7925
2023-05-05T12:22:21.539Z,29.6649
2023-05-05T12:23:29.641Z,29.5438
2023-05-05T12:24:37.624Z,29.3876
2023-05-05T12:25:45.721Z,28.9380
2023-05-05T12:26:53.826Z,29.0748
2023-05-05T12:28:02.036Z,29.6220
2023-05-05T12:29:09.844Z,30.1313
2023-05-05T12:30:17.929Z,30.7796
2023-05-05T12:31:25.953Z,30.8421
2023-05-05T12:32:34.259Z,30.4593
2023-05-05T12:33:42.240Z,30.9461
2023-05-05T12:34:50.308Z,31.0836
2023-05-05T12:35:58.480Z,31.4262
2023-05-05T12:37:06.362Z,31.7415
2023-05-05T12:38:14.466Z,31.3890
2023-05-05T12:39:22.565Z,31.7346
2023-05-05T12:40:30.601Z,31.4813
2023-05-05T12:41:38.668Z,30.9362
2023-05-05T12:42:46.763Z,30.1499
2023-05-05T12:43:54.756Z,31.0399
2023-05-05T12:45:02.751Z,31.7628
2023-05-05T12:46:10.928Z,32.3158
2023-05-05T12:47:19.004Z,32.8891
2023-05-05T12:48:27.111Z,33.6229
2023-05-05T12:49:35.064Z,33.8224
2023-05-05T12:50:43.251Z,33.5498
2023-05-05T12:51:51.241Z,33.3446
2023-05-05T12:52:59.358Z,33.9950
2023-05-05T12:54:07.446Z,34.3698
2023-05-05T12:55:15.567Z,34.5138
2023-05-05T12:56:23.559Z,35.1263
2023-05-05T12:57:31.562Z,35.4484
2023-05-05T12:58:39.558Z,35.3016
2023-05-05T12:59:47.675Z,34.5173
2023-05-05T13:00:55.816Z,33.4116
2023-05-05T13:02:04.160Z,33.9004
2023-05-05T13:03:12.024Z,33.7333
2023-05-05T13:04:20.042Z,33.4993
2023-05-05T13:05:28.151Z,33.2550
2023-05-05T13:06:36.248Z,34.2851
2023-05-05T13:07:44.208Z,34.3786
2023-05-05T13:08:52.305Z,34.7097
2023-05-05T13:10:00.529Z,35.0872
2023-05-05T13:11:08.405Z,35.2363
2023-05-05T13:12:16.526Z,34.9548
2023-05-05T13:13:24.449Z,35.1913
2023-05-05T13:14:32.674Z,34.4770
2023-05-05T13:15:40.653Z,33.1771
2023-05-05T13:16:48.784Z,32.8704
2023-05-05T13:17:57.100Z,33.3732
2023-05-05T13:19:04.896Z,33.2225
2023-05-05T13:20:13.054Z,32.4048
2023-05-05T13:21:21.060Z,32.6415
2023-05-05T13:22:29.164Z,31.8773
2023-05-05T13:23:37.190Z,31.5221
2023-05-05T13:24:52.479Z,31.2963
2023-05-05T13:25:58.101Z,31.3272
2023-05-05T13:27:06.162Z,31.0851
2023-05-05T13:28:14.201Z,30.2909
2023-05-05T13:29:24.667Z,30.1295
2023-05-05T13:30:35.326Z,30.8058
2023-05-05T13:31:43.656Z,31.0712
2023-05-05T13:32:51.599Z,30.3748
2023-05-05T13:33:59.540Z,30.5146
2023-05-05T13:35:07.894Z,30.3422
2023-05-05T13:36:15.840Z,30.6579
2023-05-05T13:37:23.740Z,30.6073
2023-05-05T13:38:31.835Z,30.8694
2023-05-05T13:39:39.752Z,29.5085
2023-05-05T13:40:47.830Z,28.8049
2023-05-05T13:41:55.875Z,27.9528
2023-05-05T13:43:04.052Z,27.4214
2023-05-05T13:44:12.149Z,26.9219